Time;durP1;ratioP1;P1;durP2;ratioP2;P2;SDS_P1;SDS_P2;PMS_P1;PMS_P2;Temp;Humidity;BMP_temperature;BMP_pressure;BME280_temperature;BME280_humidity;BME280_pressure;Samples;Min_cycle;Max_cycle;Signal;HPM_P1;HPM_P2
2022/09/24 00:01:35;;;;;;;11.02;7.07;;;;;;;9.69;99.83;97079.19;5067852;28;20132;-65
2022/09/24 00:04:04;;;;;;;8.40;6.43;;;;;;;9.81;99.36;97079.06;5068394;28;20102;-64
2022/09/24 00:06:36;;;;;;;13.13;7.05;;;;;;;9.91;98.32;97070.22;5068202;28;20072;-65
2022/09/24 00:09:03;;;;;;;12.00;6.82;;;;;;;9.83;99.13;97068.78;5068212;28;20048;-65
2022/09/24 00:11:30;;;;;;;10.13;6.30;;;;;;;9.84;98.86;97069.63;5069436;28;20123;-66
2022/09/24 00:13:57;;;;;;;10.10;6.63;;;;;;;9.82;99.08;97066.34;5088693;28;20065;-65
2022/09/24 00:16:27;;;;;;;8.77;6.38;;;;;;;9.85;98.87;97065.84;5075777;28;20043;-65
2022/09/24 00:18:54;;;;;;;11.27;7.15;;;;;;;9.74;99.37;97062.22;5067861;28;20045;-66
2022/09/24 00:21:23;;;;;;;13.30;8.07;;;;;;;9.69;100.00;97062.97;5067629;28;20040;-64
2022/09/24 00:23:52;;;;;;;9.00;6.68;;;;;;;9.80;99.48;97057.69;5068518;28;20384;-65
2022/09/24 00:29:05;;;;;;;10.23;7.82;;;;;;;10.01;98.07;97056.81;5066745;28;20048;-65
2022/09/24 00:31:32;;;;;;;9.65;6.25;;;;;;;9.92;98.70;97065.63;5067010;28;20578;-66
2022/09/24 00:33:59;;;;;;;9.23;5.80;;;;;;;9.95;98.04;97052.41;5067370;28;20037;-65
2022/09/24 00:36:27;;;;;;;9.07;6.55;;;;;;;9.91;98.43;97051.28;5067251;28;20052;-65
2022/09/24 00:38:55;;;;;;;13.13;6.38;;;;;;;9.96;98.13;97045.94;5067533;28;20050;-67
2022/09/24 00:41:25;;;;;;;8.30;6.05;;;;;;;10.13;97.26;97055.81;5068120;28;20123;-67
2022/09/24 00:43:52;;;;;;;8.90;6.20;;;;;;;10.00;97.80;97052.44;5084729;28;20055;-67
2022/09/24 00:46:42;;;;;;;10.77;6.65;;;;;;;9.98;97.97;97053.78;5066982;28;20052;-64
2022/09/24 00:49:16;;;;;;;8.05;6.10;;;;;;;10.13;97.09;97042.28;5058282;28;20511;-64
2022/09/24 00:51:47;;;;;;;8.27;6.25;;;;;;;10.13;96.88;97031.47;5066692;28;20123;-66
2022/09/24 00:54:23;;;;;;;10.68;6.40;;;;;;;10.20;96.33;97028.53;5082382;28;20522;-66
2022/09/24 00:56:52;;;;;;;9.32;5.82;;;;;;;10.25;95.65;97029.41;5073755;28;20119;-66
2022/09/24 00:59:22;;;;;;;8.55;5.38;;;;;;;10.26;95.87;97024.81;5067744;28;20136;-66
2022/09/24 01:01:56;;;;;;;9.10;5.97;;;;;;;10.07;96.87;97025.22;5066667;28;20051;-65
2022/09/24 01:04:25;;;;;;;7.97;5.85;;;;;;;9.99;97.54;97022.97;5067197;28;20040;-66
2022/09/24 01:06:52;;;;;;;8.77;6.30;;;;;;;9.86;98.26;97026.91;5066623;28;20383;-64
2022/09/24 01:09:20;;;;;;;8.30;6.45;;;;;;;9.70;99.66;97020.53;5067306;28;20046;-67
2022/09/24 01:11:58;;;;;;;10.82;6.78;;;;;;;9.62;100.00;97027.22;5070886;28;20134;-66
2022/09/24 01:14:32;;;;;;;8.60;6.03;;;;;;;9.60;100.00;97021.25;5087850;28;20076;-67
2022/09/24 01:17:14;;;;;;;8.65;6.57;;;;;;;9.59;100.00;97017.72;5069743;28;20071;-66
2022/09/24 01:20:11;;;;;;;12.48;7.03;;;;;;;9.72;99.36;97007.56;5063256;28;20108;-65
2022/09/24 01:22:56;;;;;;;8.02;6.15;;;;;;;9.83;98.38;97003.06;5066867;28;20114;-64
2022/09/24 01:25:39;;;;;;;10.27;7.07;;;;;;;9.91;97.46;97004.50;5066024;28;20043;-67
2022/09/24 01:28:29;;;;;;;9.07;6.53;;;;;;;9.89;97.46;96997.44;5066672;28;20457;-66
2022/09/24 01:31:05;;;;;;;11.60;6.95;;;;;;;9.95;97.05;97006.44;5054204;28;20123;-66
2022/09/24 01:33:35;;;;;;;9.60;6.97;;;;;;;9.83;97.17;96997.66;5056975;28;20040;-65
2022/09/24 01:36:07;;;;;;;10.95;6.65;;;;;;;9.72;97.82;96989.47;5063599;28;20131;-64
2022/09/24 01:38:39;;;;;;;8.50;6.70;;;;;;;9.50;99.24;96992.22;5065502;28;20063;-66
2022/09/24 01:41:09;;;;;;;11.45;6.30;;;;;;;9.47;99.35;96988.13;5065928;28;20115;-66
2022/09/24 01:43:38;;;;;;;9.15;6.85;;;;;;;9.40;99.63;96984.81;5085143;28;20039;-66
2022/09/24 01:46:05;;;;;;;8.43;6.68;;;;;;;9.34;100.00;96989.38;5074970;28;20479;-65
2022/09/24 01:48:36;;;;;;;8.82;6.47;;;;;;;9.39;100.00;96985.88;5067074;28;20102;-66
2022/09/24 01:51:11;;;;;;;9.75;6.47;;;;;;;9.42;99.92;96979.97;5065688;28;20636;-66
2022/09/24 01:53:53;;;;;;;8.88;6.60;;;;;;;9.50;99.07;96976.00;5076870;28;20078;-66
2022/09/24 01:56:26;;;;;;;9.80;6.55;;;;;;;9.58;98.54;96970.13;5073170;28;20545;-66
2022/09/24 01:58:58;;;;;;;8.80;6.50;;;;;;;9.65;98.02;96971.84;5063860;28;20128;-65
2022/09/24 02:01:35;;;;;;;13.13;7.43;;;;;;;9.47;99.07;96976.53;5065707;28;20045;-65
2022/09/24 02:04:11;;;;;;;8.15;6.15;;;;;;;9.47;98.96;96963.81;5066050;28;20052;-66
2022/09/24 02:06:50;;;;;;;10.23;5.85;;;;;;;9.53;98.45;96959.28;5066067;28;20050;-66
2022/09/24 02:09:36;;;;;;;8.55;6.20;;;;;;;9.55;98.10;96953.63;5065807;28;20052;-65
2022/09/24 02:12:09;;;;;;;8.23;6.32;;;;;;;9.42;99.08;96952.13;5071916;28;20054;-66
2022/09/24 02:14:43;;;;;;;9.98;6.68;;;;;;;9.21;100.00;96958.13;5075003;28;20074;-65
2022/09/24 02:17:11;;;;;;;8.85;6.60;;;;;;;9.02;100.00;96962.22;5065407;28;20147;-66
2022/09/24 02:19:39;;;;;;;9.48;7.55;;;;;;;9.09;100.00;96962.84;5065575;28;20123;-66
2022/09/24 02:22:09;;;;;;;10.00;6.97;;;;;;;9.11;100.00;96960.75;5065554;28;20044;-66
2022/09/24 02:24:49;;;;;;;10.20;7.05;;;;;;;9.00;100.00;96957.09;5065748;28;20082;-65
2022/09/24 02:27:17;;;;;;;9.02;7.03;;;;;;;8.96;100.00;96959.47;5065676;28;20047;-63
2022/09/24 02:29:45;;;;;;;10.13;8.05;;;;;;;8.93;100.00;96956.47;5066012;28;20119;-65
2022/09/24 02:32:15;;;;;;;8.60;6.78;;;;;;;8.91;100.00;96959.41;5064586;28;20056;-65
2022/09/24 02:34:46;;;;;;;14.38;7.85;;;;;;;8.91;100.00;96958.59;5065219;28;20041;-65
2022/09/24 02:37:14;;;;;;;9.32;7.47;;;;;;;8.87;100.00;96952.06;5064604;28;20044;-66
2022/09/24 02:39:41;;;;;;;11.63;6.95;;;;;;;8.92;100.00;96944.03;5063819;28;20119;-64
2022/09/24 02:42:12;;;;;;;9.57;6.85;;;;;;;8.94;100.00;96950.81;5071726;28;20052;-65
2022/09/24 02:44:38;;;;;;;10.83;6.67;;;;;;;8.96;100.00;96953.28;5079232;28;20124;-66
2022/09/24 02:47:06;;;;;;;10.50;6.20;;;;;;;8.94;100.00;96950.00;5064995;28;20048;-66
2022/09/24 02:49:33;;;;;;;9.32;6.93;;;;;;;8.97;100.00;96950.31;5065484;28;20136;-66
2022/09/24 02:51:59;;;;;;;8.27;6.63;;;;;;;9.01;100.00;96960.59;5065225;28;20041;-64
2022/09/24 02:54:26;;;;;;;8.98;6.75;;;;;;;9.11;100.00;96958.84;5082308;28;20071;-65
2022/09/24 02:56:53;;;;;;;9.05;7.15;;;;;;;9.17;100.00;96959.72;5069462;28;20058;-66
2022/09/24 02:59:19;;;;;;;8.30;6.35;;;;;;;9.17;100.00;96958.88;5068236;28;20049;-66
2022/09/24 03:01:46;;;;;;;12.13;6.32;;;;;;;9.22;100.00;96958.97;5069040;28;20033;-67
2022/09/24 03:04:14;;;;;;;10.82;6.75;;;;;;;9.25;100.00;96944.94;5069535;28;20122;-66
2022/09/24 03:06:41;;;;;;;9.68;6.15;;;;;;;9.27;100.00;96940.09;5069183;28;20124;-66
2022/09/24 03:09:11;;;;;;;10.77;6.75;;;;;;;9.26;100.00;96937.66;5069760;28;20040;-65
2022/09/24 03:11:38;;;;;;;8.02;5.68;;;;;;;9.27;100.00;96937.41;5070603;28;20547;-65
2022/09/24 03:14:05;;;;;;;13.77;6.18;;;;;;;9.30;100.00;96939.59;5089984;28;20046;-65
2022/09/24 03:16:32;;;;;;;9.85;6.00;;;;;;;9.33;100.00;96938.28;5070099;28;20041;-65
2022/09/24 03:18:59;;;;;;;10.07;5.70;;;;;;;9.22;100.00;96940.06;5069132;28;20166;-65
2022/09/24 03:21:25;;;;;;;9.15;6.38;;;;;;;9.20;100.00;96931.38;5068989;28;20048;-64
2022/09/24 03:23:52;;;;;;;12.45;6.32;;;;;;;9.15;100.00;96934.84;5068362;28;20123;-65
2022/09/24 03:26:19;;;;;;;9.45;6.45;;;;;;;9.19;100.00;96927.88;5068803;28;20408;-67
2022/09/24 03:28:45;;;;;;;9.05;6.30;;;;;;;9.18;100.00;96915.41;5069564;28;20083;-65
2022/09/24 03:31:11;;;;;;;11.00;7.75;;;;;;;9.20;100.00;96924.09;5068264;28;20132;-63
2022/09/24 03:33:46;;;;;;;8.25;6.53;;;;;;;9.21;100.00;96923.03;5069236;28;20048;-65
2022/09/24 03:36:15;;;;;;;9.07;6.15;;;;;;;9.10;100.00;96923.97;5068810;28;20048;-64
2022/09/24 03:38:42;;;;;;;9.20;6.78;;;;;;;9.13;100.00;96926.19;5068437;28;20068;-65
2022/09/24 03:41:10;;;;;;;9.57;7.05;;;;;;;9.20;100.00;96929.50;5068518;28;20044;-67
2022/09/24 03:43:37;;;;;;;9.82;6.80;;;;;;;9.36;100.00;96929.63;5085538;28;20126;-66
2022/09/24 03:46:07;;;;;;;10.80;6.20;;;;;;;9.46;100.00;96926.22;5068386;28;20040;-65
2022/09/24 03:48:36;;;;;;;10.35;7.03;;;;;;;9.50;100.00;96920.06;5059938;28;20041;-65
2022/09/24 03:51:09;;;;;;;11.77;6.95;;;;;;;9.49;100.00;96923.84;5068444;28;20044;-66
2022/09/24 03:53:37;;;;;;;10.02;6.35;;;;;;;9.48;100.00;96921.41;5075732;28;20058;-64
2022/09/24 03:56:05;;;;;;;11.73;7.47;;;;;;;9.42;100.00;96914.31;5061707;28;20436;-66
2022/09/24 03:58:35;;;;;;;10.35;6.68;;;;;;;9.35;100.00;96917.22;5067855;28;20652;-66
2022/09/24 04:01:02;;;;;;;11.35;6.78;;;;;;;9.31;100.00;96919.63;5067495;28;20051;-67
2022/09/24 04:03:29;;;;;;;8.43;6.80;;;;;;;9.32;100.00;96915.84;5067677;28;20045;-65
2022/09/24 04:05:55;;;;;;;10.85;6.75;;;;;;;9.39;100.00;96912.94;5068206;28;20048;-65
2022/09/24 04:08:22;;;;;;;10.02;6.85;;;;;;;9.41;100.00;96909.97;5068278;28;20049;-65
2022/09/24 04:10:50;;;;;;;9.15;6.80;;;;;;;9.48;100.00;96911.38;5065617;28;20131;-64
2022/09/24 04:13:18;;;;;;;11.48;7.18;;;;;;;9.52;100.00;96908.19;5072328;28;20707;-65
2022/09/24 04:15:44;;;;;;;8.55;7.10;;;;;;;9.55;100.00;96905.78;5068064;28;20044;-64
2022/09/24 04:18:11;;;;;;;8.40;6.32;;;;;;;9.56;100.00;96909.28;5067765;28;20039;-64
2022/09/24 04:20:38;;;;;;;8.10;6.70;;;;;;;9.49;100.00;96913.03;5068019;28;20068;-66
2022/09/24 04:23:05;;;;;;;9.90;7.43;;;;;;;9.55;100.00;96916.56;5068206;28;20127;-64
2022/09/24 04:25:32;;;;;;;7.43;6.05;;;;;;;9.59;100.00;96906.88;5067805;28;20131;-64
2022/09/24 04:28:05;;;;;;;8.65;6.18;;;;;;;9.67;100.00;96900.22;5068331;28;20426;-66
2022/09/24 04:30:33;;;;;;;9.55;6.63;;;;;;;9.70;100.00;96902.38;5068325;28;20072;-64
2022/09/24 04:32:59;;;;;;;9.98;6.72;;;;;;;9.76;100.00;96895.13;5067511;28;20044;-64
2022/09/24 04:35:28;;;;;;;13.95;6.78;;;;;;;9.76;100.00;96895.97;5067997;28;20041;-65
2022/09/24 04:37:55;;;;;;;10.05;6.57;;;;;;;9.79;100.00;96897.31;5067499;28;20548;-64
2022/09/24 04:40:22;;;;;;;8.25;6.57;;;;;;;9.81;100.00;96892.50;5068255;28;20041;-66
2022/09/24 04:42:48;;;;;;;11.70;7.32;;;;;;;9.76;100.00;96892.44;5065921;28;20049;-64
2022/09/24 04:45:18;;;;;;;9.35;7.18;;;;;;;9.68;100.00;96901.00;5066617;28;20047;-64
2022/09/24 04:47:56;;;;;;;13.60;7.25;;;;;;;9.54;100.00;96893.34;5067010;28;20520;-65
2022/09/24 04:50:33;;;;;;;11.93;7.32;;;;;;;9.58;100.00;96897.16;5066460;28;20553;-65
2022/09/24 04:53:00;;;;;;;9.95;6.88;;;;;;;9.71;100.00;96901.31;5066614;28;20111;-64
2022/09/24 04:55:27;;;;;;;12.05;7.30;;;;;;;9.79;100.00;96894.63;5063528;28;20036;-64
2022/09/24 04:57:55;;;;;;;12.30;8.05;;;;;;;9.82;100.00;96896.00;5066468;28;20036;-64
2022/09/24 05:00:23;;;;;;;10.93;7.53;;;;;;;9.81;100.00;96891.66;5067336;28;20047;-63
2022/09/24 05:02:58;;;;;;;11.98;7.00;;;;;;;9.56;100.00;96896.63;5065974;28;20585;-63
2022/09/24 05:05:25;;;;;;;9.88;7.68;;;;;;;9.32;100.00;96896.13;5066955;28;20547;-65
2022/09/24 05:07:52;;;;;;;10.88;7.55;;;;;;;9.27;100.00;96896.06;5067315;28;20047;-63
2022/09/24 05:10:18;;;;;;;11.18;7.38;;;;;;;9.29;100.00;96893.94;5066717;28;20040;-62
2022/09/24 05:12:45;;;;;;;11.77;8.27;;;;;;;9.38;100.00;96908.59;5078608;28;20058;-63
2022/09/24 05:15:11;;;;;;;10.75;7.78;;;;;;;9.47;100.00;96908.97;5066502;28;20117;-63
2022/09/24 05:17:39;;;;;;;10.38;7.28;;;;;;;9.52;100.00;96905.47;5067203;28;20036;-64
2022/09/24 05:20:07;;;;;;;11.30;7.20;;;;;;;9.59;100.00;96908.78;5066128;28;20510;-63
2022/09/24 05:22:35;;;;;;;10.20;7.05;;;;;;;9.55;100.00;96908.47;5066888;28;20048;-65
2022/09/24 05:25:02;;;;;;;9.95;7.65;;;;;;;9.51;100.00;96918.16;5066418;28;20112;-63
2022/09/24 05:27:28;;;;;;;10.85;7.82;;;;;;;9.33;100.00;96908.56;5066350;28;20055;-63
2022/09/24 05:29:55;;;;;;;10.68;8.02;;;;;;;9.22;100.00;96913.03;5066963;28;20117;-63
2022/09/24 05:32:21;;;;;;;10.27;7.93;;;;;;;9.09;100.00;96916.94;5065905;28;20047;-65
2022/09/24 05:34:49;;;;;;;11.30;7.93;;;;;;;9.11;100.00;96914.81;5062615;28;20119;-65
2022/09/24 05:37:17;;;;;;;11.63;8.13;;;;;;;9.23;100.00;96922.78;5062987;28;20128;-64
2022/09/24 05:39:43;;;;;;;12.90;8.77;;;;;;;9.34;100.00;96918.28;5064760;28;20071;-64
2022/09/24 05:42:12;;;;;;;14.23;8.02;;;;;;;9.45;100.00;96921.91;5063619;28;20080;-65
2022/09/24 05:44:40;;;;;;;10.52;8.40;;;;;;;9.53;100.00;96917.91;5063580;28;20079;-64
2022/09/24 05:47:07;;;;;;;13.45;7.70;;;;;;;9.56;100.00;96926.34;5064165;28;20127;-63
2022/09/24 05:49:34;;;;;;;9.55;7.72;;;;;;;9.56;100.00;96929.03;5057137;28;20051;-64
2022/09/24 05:52:01;;;;;;;12.85;8.32;;;;;;;9.66;100.00;96933.69;5057980;28;20060;-64
2022/09/24 05:54:27;;;;;;;11.95;9.02;;;;;;;9.75;100.00;96936.75;5063209;28;20500;-63
2022/09/24 05:56:53;;;;;;;10.57;7.80;;;;;;;9.80;100.00;96934.09;5063632;28;20056;-64
2022/09/24 05:59:20;;;;;;;14.13;9.40;;;;;;;9.84;100.00;96932.50;5053819;28;20512;-64
2022/09/24 06:01:47;;;;;;;11.45;8.68;;;;;;;9.93;100.00;96926.63;5056184;28;20521;-64
2022/09/24 06:04:15;;;;;;;11.95;8.10;;;;;;;9.97;100.00;96928.56;5064029;28;20495;-64
2022/09/24 06:06:42;;;;;;;11.00;8.32;;;;;;;10.10;99.32;96921.88;5068696;28;20131;-62
2022/09/24 06:09:08;;;;;;;11.95;7.65;;;;;;;10.24;98.48;96924.97;5061206;28;20565;-64
2022/09/24 06:11:35;;;;;;;11.98;7.78;;;;;;;10.31;97.38;96927.44;5064774;28;20052;-65
2022/09/24 06:14:07;;;;;;;9.50;7.13;;;;;;;10.33;97.44;96925.28;5066778;28;20762;-63
2022/09/24 06:16:34;;;;;;;11.38;9.23;;;;;;;10.45;96.54;96927.81;5061518;28;20503;-65
2022/09/24 06:19:00;;;;;;;11.45;6.90;;;;;;;10.53;95.74;96932.75;5071374;28;20033;-63
2022/09/24 06:21:27;;;;;;;11.60;7.20;;;;;;;10.58;95.67;96934.66;5076739;28;20040;-62
2022/09/24 06:23:54;;;;;;;9.98;7.55;;;;;;;10.50;96.71;96937.84;5064059;28;20568;-64
2022/09/24 06:26:20;;;;;;;9.10;7.30;;;;;;;10.48;96.63;96945.44;5065329;28;20599;-64
2022/09/24 06:28:47;;;;;;;8.55;6.88;;;;;;;10.43;96.98;96946.16;5065983;28;20098;-64
2022/09/24 06:31:13;;;;;;;10.20;7.72;;;;;;;10.44;97.78;96950.56;5064740;28;20058;-63
2022/09/24 06:33:41;;;;;;;9.63;7.75;;;;;;;10.45;97.13;96954.06;5062766;28;20052;-65
2022/09/24 06:36:08;;;;;;;12.43;8.10;;;;;;;10.51;97.23;96953.03;5079421;28;20590;-63
2022/09/24 06:38:35;;;;;;;12.32;7.68;;;;;;;10.56;96.96;96954.94;5083848;28;20115;-63
2022/09/24 06:41:03;;;;;;;10.98;7.95;;;;;;;10.56;96.71;96957.66;5070534;28;20044;-64
2022/09/24 06:43:32;;;;;;;13.27;7.82;;;;;;;10.56;97.62;96957.66;5067106;28;20063;-65
2022/09/24 06:45:59;;;;;;;11.55;7.38;;;;;;;10.63;96.56;96953.66;5064988;28;20131;-66
2022/09/24 06:48:26;;;;;;;10.55;7.35;;;;;;;10.68;96.98;96957.47;5065868;28;20561;-66
2022/09/24 06:50:55;;;;;;;12.13;8.25;;;;;;;10.67;97.70;96962.03;5077585;28;20075;-64
2022/09/24 06:53:21;;;;;;;9.77;7.32;;;;;;;10.74;96.26;96961.81;5077869;28;20040;-65
2022/09/24 06:55:48;;;;;;;11.00;7.28;;;;;;;10.87;94.89;96961.31;5065616;28;20514;-65
2022/09/24 06:58:18;;;;;;;9.73;7.45;;;;;;;10.95;94.60;96951.91;5066018;28;20055;-63
2022/09/24 07:01:00;;;;;;;10.53;7.20;;;;;;;11.10;93.85;96951.16;5070723;28;20477;-65
2022/09/24 07:03:32;;;;;;;13.15;7.43;;;;;;;11.30;92.34;96946.84;5065714;28;20052;-64
2022/09/24 07:05:59;;;;;;;;;;;;;;;11.41;91.86;96953.94;5066131;28;20131;-65
2022/09/24 07:08:26;;;;;;;11.70;6.88;;;;;;;11.49;91.71;96952.59;5065375;28;20020;-65
2022/09/24 07:10:52;;;;;;;11.98;7.88;;;;;;;11.45;93.30;96973.19;5064855;28;20127;-64
2022/09/24 07:13:22;;;;;;;10.40;6.95;;;;;;;11.41;93.48;96969.38;5082360;28;20123;-66
2022/09/24 07:15:50;;;;;;;10.60;6.32;;;;;;;11.49;93.04;96974.28;5069558;28;20135;-64
2022/09/24 07:18:17;;;;;;;10.20;6.78;;;;;;;11.49;91.97;96968.03;5085994;28;20050;-63
2022/09/24 07:20:49;;;;;;;12.23;7.53;;;;;;;11.62;91.35;96977.56;5064851;28;20048;-65
2022/09/24 07:23:17;;;;;;;10.05;6.65;;;;;;;11.71;92.05;96978.66;5063133;28;20119;-65
2022/09/24 07:25:44;;;;;;;11.20;7.10;;;;;;;11.77;91.48;96979.47;5063634;28;20529;-64
2022/09/24 07:28:12;;;;;;;10.18;6.53;;;;;;;11.90;91.74;96987.06;5065125;28;20517;-65
2022/09/24 07:30:39;;;;;;;8.70;6.50;;;;;;;12.07;91.24;96984.16;5064752;28;20123;-66
2022/09/24 07:33:06;;;;;;;9.70;6.07;;;;;;;12.21;91.02;96978.97;5065089;28;20048;-66
2022/09/24 07:35:37;;;;;;;9.98;6.72;;;;;;;12.26;90.14;96983.59;5064396;28;20535;-65
2022/09/24 07:38:06;;;;;;;10.43;5.88;;;;;;;12.35;89.44;96983.88;5064806;28;20048;-64
2022/09/24 07:40:33;;;;;;;8.65;6.50;;;;;;;12.41;88.56;96984.66;5064219;28;20068;-65
2022/09/24 07:43:00;;;;;;;11.45;6.78;;;;;;;12.46;87.90;96990.91;5079185;28;20607;-65
2022/09/24 07:45:28;;;;;;;9.55;5.22;;;;;;;12.58;87.25;96984.38;5072330;28;20071;-65
2022/09/24 07:47:56;;;;;;;12.20;5.63;;;;;;;12.64;85.05;96985.97;5066781;28;20044;-65
2022/09/24 07:50:23;;;;;;;9.20;5.40;;;;;;;12.83;85.28;96998.97;5068229;28;20054;-66
2022/09/24 07:52:50;;;;;;;10.43;5.65;;;;;;;12.91;84.49;96997.59;5070726;28;20036;-65
2022/09/24 07:55:17;;;;;;;8.88;5.88;;;;;;;12.84;84.58;96996.00;5068316;28;20094;-64
2022/09/24 07:57:48;;;;;;;10.73;6.07;;;;;;;12.82;84.81;96992.72;5068774;28;20051;-64
2022/09/24 08:00:18;;;;;;;10.50;6.30;;;;;;;12.83;84.01;96997.06;5068012;28;20127;-63
2022/09/24 08:02:46;;;;;;;7.72;5.53;;;;;;;12.91;84.14;96992.16;5068324;28;20052;-65
2022/09/24 08:05:16;;;;;;;7.47;5.60;;;;;;;12.94;84.27;96991.63;5068978;28;20067;-65
2022/09/24 08:08:10;;;;;;;7.65;5.72;;;;;;;13.05;84.48;96986.97;5069367;28;20672;-63
2022/09/24 08:10:37;;;;;;;7.63;5.47;;;;;;;13.05;85.15;96993.19;5054280;28;20076;-65
2022/09/24 08:13:03;;;;;;;9.57;5.93;;;;;;;12.98;85.81;96998.13;5067715;28;20043;-64
2022/09/24 08:15:32;;;;;;;8.55;6.15;;;;;;;13.05;85.47;96995.09;5068153;28;20116;-66
2022/09/24 08:18:02;;;;;;;8.35;5.78;;;;;;;13.13;85.16;96991.81;5068296;28;20552;-63
2022/09/24 08:20:31;;;;;;;7.05;5.65;;;;;;;13.19;85.32;96996.13;5068095;28;20123;-65
2022/09/24 08:23:05;;;;;;;8.45;5.88;;;;;;;13.23;85.99;96997.19;5067582;28;20116;-65
2022/09/24 08:25:32;;;;;;;9.30;5.53;;;;;;;13.08;86.62;96997.28;5068571;28;20052;-64
2022/09/24 08:28:03;;;;;;;7.65;5.35;;;;;;;13.16;86.95;96990.44;5068202;28;20067;-65
2022/09/24 08:30:30;;;;;;;7.65;5.20;;;;;;;13.24;86.37;97003.47;5067863;28;20507;-65
2022/09/24 08:32:57;;;;;;;7.05;5.28;;;;;;;13.23;86.12;96994.47;5070738;28;20036;-63
2022/09/24 08:35:24;;;;;;;9.15;5.35;;;;;;;13.32;85.99;97000.16;5067738;28;20056;-64
2022/09/24 08:37:53;;;;;;;7.00;5.13;;;;;;;13.37;85.90;96997.41;5066653;28;20147;-63
2022/09/24 08:40:24;;;;;;;9.80;5.30;;;;;;;13.42;85.60;97002.03;5067523;28;20186;-64
2022/09/24 08:43:08;;;;;;;7.78;5.10;;;;;;;13.34;85.22;96997.19;5069284;28;20042;-63
2022/09/24 08:48:35;;;;;;;12.48;7.30;;;;;;;13.63;84.85;97000.03;5067976;28;20094;-64
2022/09/24 08:51:07;;;;;;;10.15;6.00;;;;;;;13.65;87.14;97002.47;5050067;28;20041;-64
2022/09/24 08:54:01;;;;;;;8.88;6.28;;;;;;;13.68;88.26;97007.34;5077952;28;20139;-65
2022/09/24 08:56:33;;;;;;;11.00;6.10;;;;;;;13.70;88.52;97002.44;5072084;28;20044;-65
2022/09/24 08:59:00;;;;;;;11.02;7.13;;;;;;;13.84;89.29;97009.97;5067982;28;20067;-66
2022/09/24 09:01:27;;;;;;;10.63;6.18;;;;;;;13.89;90.40;97004.47;5064382;28;20036;-65
2022/09/24 09:04:00;;;;;;;8.95;6.13;;;;;;;13.95;89.28;96997.94;5073296;28;20040;-65
2022/09/24 09:06:52;;;;;;;8.13;5.93;;;;;;;13.88;90.95;97003.69;5066738;28;20487;-64
2022/09/24 09:09:24;;;;;;;8.27;6.65;;;;;;;14.17;90.65;97002.13;5067496;28;20766;-65
2022/09/24 09:11:56;;;;;;;;;;;;;;;14.29;90.79;97010.72;5070363;28;20069;-66
2022/09/24 09:14:38;;;;;;;12.07;6.75;;;;;;;14.42;91.07;97013.91;5065391;28;20429;-66
2022/09/24 09:17:30;;;;;;;9.48;5.18;;;;;;;14.25;91.65;97011.56;5066361;28;20147;-67
2022/09/24 09:20:00;;;;;;;8.15;4.85;;;;;;;14.27;88.84;97007.47;5066748;28;20123;-64
2022/09/24 09:22:34;;;;;;;9.20;5.25;;;;;;;14.24;91.33;97007.22;5066691;28;20483;-66
2022/09/24 09:25:24;;;;;;;7.68;4.88;;;;;;;14.25;92.23;97009.69;5066867;28;20626;-65
2022/09/24 09:27:57;;;;;;;7.78;4.30;;;;;;;14.24;91.41;97007.22;5064867;28;20055;-66
2022/09/24 09:30:23;;;;;;;6.43;4.25;;;;;;;13.95;92.36;97005.25;5065998;28;20068;-65
2022/09/24 09:32:56;;;;;;;7.75;4.18;;;;;;;14.00;94.14;97006.03;5066398;28;20044;-65
2022/09/24 09:35:57;;;;;;;6.80;4.35;;;;;;;14.10;91.99;97002.44;5065707;28;20045;-65
2022/09/24 09:38:33;;;;;;;6.88;4.20;;;;;;;14.17;91.50;97011.09;5058695;28;20123;-65
2022/09/24 09:41:17;;;;;;;7.90;5.03;;;;;;;14.09;94.01;97005.44;5064496;28;20072;-64
2022/09/24 09:43:43;;;;;;;9.90;5.47;;;;;;;14.09;94.64;97009.00;5057872;28;20052;-68
2022/09/24 09:46:17;;;;;;;6.68;4.95;;;;;;;14.40;91.93;97002.47;5064344;28;20047;-67
2022/09/24 09:48:47;;;;;;;7.35;4.30;;;;;;;14.50;89.77;97001.56;5064291;28;20044;-67
2022/09/24 09:51:19;;;;;;;7.28;4.95;;;;;;;14.59;90.88;97004.50;5062987;28;20116;-67
2022/09/24 09:53:59;;;;;;;8.07;5.28;;;;;;;14.65;92.08;96998.69;5063907;28;20068;-67
2022/09/24 09:56:42;;;;;;;9.07;5.93;;;;;;;14.67;92.59;96993.75;5061967;28;20127;-67
2022/09/24 09:59:12;;;;;;;9.75;5.60;;;;;;;14.68;93.29;97005.47;5061195;28;20097;-67
2022/09/24 10:01:41;;;;;;;8.80;6.07;;;;;;;14.47;92.89;97000.22;5062087;28;20078;-67
2022/09/24 10:04:22;;;;;;;7.75;5.80;;;;;;;14.38;92.62;97002.75;5063071;28;20530;-67
2022/09/24 10:06:49;;;;;;;;;;;;;;;14.54;91.61;97008.06;5063552;28;20045;-67
2022/09/24 10:09:21;;;;;;;9.18;5.13;;;;;;;14.82;92.14;96997.47;5062739;28;20762;-66
2022/09/24 10:11:47;;;;;;;8.80;4.97;;;;;;;14.90;89.70;96996.03;5063761;28;20127;-67
2022/09/24 10:14:17;;;;;;;7.88;5.38;;;;;;;14.93;90.54;96998.97;5062769;28;20040;-67
2022/09/24 10:16:48;;;;;;;6.50;5.32;;;;;;;15.02;92.39;96998.34;5067378;28;20499;-67
2022/09/24 10:19:23;;;;;;;8.30;5.15;;;;;;;15.01;90.88;97005.72;5061546;28;20445;-67
2022/09/24 10:21:51;;;;;;;8.25;5.18;;;;;;;15.15;91.51;96999.56;5062269;28;20106;-68
2022/09/24 10:24:21;;;;;;;7.50;5.43;;;;;;;15.27;88.10;96993.69;5062138;28;20037;-67
2022/09/24 10:26:48;;;;;;;7.53;4.95;;;;;;;15.45;87.02;96998.34;5062680;28;20044;-68
2022/09/24 10:32:28;;;;;;;7.72;4.60;;;;;;;15.66;86.76;97000.00;5062147;28;20079;-67
2022/09/24 10:35:00;;;;;;;9.45;4.85;;;;;;;15.71;87.14;96995.25;5062622;28;20032;-67
2022/09/24 10:37:28;;;;;;;7.30;4.50;;;;;;;15.67;88.40;96999.69;5063462;28;20036;-68
2022/09/24 10:40:14;;;;;;;6.65;4.53;;;;;;;15.13;89.17;97001.75;5062121;28;20041;-67
2022/09/24 10:42:41;;;;;;;7.80;4.72;;;;;;;15.42;89.77;97003.59;5058158;28;20048;-67
2022/09/24 10:45:14;;;;;;;7.47;4.53;;;;;;;15.56;88.46;96993.56;5065324;28;20056;-67
2022/09/24 10:47:54;;;;;;;7.63;5.18;;;;;;;15.54;89.59;96997.69;5065962;28;20492;-67
2022/09/24 10:50:26;;;;;;;6.70;4.90;;;;;;;15.66;90.04;96994.53;5065118;28;20117;-68
2022/09/24 10:53:12;;;;;;;6.55;4.57;;;;;;;15.99;86.92;96997.34;5067976;28;20499;-67
2022/09/24 10:55:59;;;;;;;6.90;4.63;;;;;;;15.94;87.88;96995.53;5064590;28;20045;-67
2022/09/24 10:58:46;;;;;;;5.22;4.15;;;;;;;15.81;87.04;96988.06;5065089;28;20047;-67
2022/09/24 11:01:46;;;;;;;7.65;5.55;;;;;;;15.94;85.85;96994.69;5065158;28;20123;-68
2022/09/24 11:04:28;;;;;;;6.20;4.80;;;;;;;15.86;86.70;96985.25;5062555;28;20045;-67
2022/09/24 11:07:17;;;;;;;;;;;;;;;15.73;88.55;96995.78;5063639;28;20052;-67
2022/09/24 11:09:55;;;;;;;7.03;5.13;;;;;;;15.47;90.77;96993.41;5063395;28;20460;-67
2022/09/24 11:12:51;;;;;;;10.23;6.45;;;;;;;15.36;90.88;96993.84;5062757;28;20097;-66
2022/09/24 11:15:26;;;;;;;8.93;5.60;;;;;;;15.25;92.17;96991.25;5063055;28;20119;-67
2022/09/24 11:18:28;;;;;;;8.52;5.65;;;;;;;15.25;93.19;96993.19;5063471;28;20152;-68
2022/09/24 11:21:32;;;;;;;8.70;5.63;;;;;;;15.25;92.93;96993.97;5054000;28;20147;-70
2022/09/24 11:24:02;;;;;;;9.15;5.30;;;;;;;15.20;93.01;96988.59;5067327;28;20578;-63
2022/09/24 11:27:07;;;;;;;8.75;5.20;;;;;;;15.05;92.15;96982.22;5066185;28;20048;-62
2022/09/24 11:29:58;;;;;;;7.50;4.32;;;;;;;15.03;92.88;96986.31;5068016;28;20054;-62
2022/09/24 11:32:40;;;;;;;8.55;4.90;;;;;;;14.76;94.61;96987.69;5068806;28;20041;-60
2022/09/24 11:35:23;;;;;;;9.20;5.65;;;;;;;14.72;97.28;96987.47;5066576;28;20131;-66
2022/09/24 11:38:01;;;;;;;7.40;5.40;;;;;;;14.64;98.54;96986.19;5065195;28;20051;-68
2022/09/24 11:40:52;;;;;;;23.25;9.95;;;;;;;14.65;100.00;96984.25;5066740;28;20163;-65
2022/09/24 11:43:40;;;;;;;11.85;6.18;;;;;;;14.62;100.00;96988.38;5076954;28;20049;-64
2022/09/24 11:46:14;;;;;;;9.35;5.28;;;;;;;14.60;100.00;96990.59;5073450;28;20067;-65
2022/09/24 11:49:06;;;;;;;9.50;6.00;;;;;;;14.44;100.00;96981.72;5072311;28;20063;-68
2022/09/24 11:51:47;;;;;;;10.93;6.53;;;;;;;14.27;100.00;96987.59;5066171;28;20079;-64
2022/09/24 11:54:25;;;;;;;10.23;6.37;;;;;;;14.24;100.00;96989.00;5055307;28;20570;-61
2022/09/24 11:57:15;;;;;;;8.93;6.60;;;;;;;14.22;100.00;96991.19;5049167;28;20128;-61
2022/09/24 11:59:44;;;;;;;9.25;6.57;;;;;;;14.18;100.00;96992.84;5057651;28;20046;-62
2022/09/24 12:02:20;;;;;;;14.23;9.85;;;;;;;14.13;100.00;96985.53;5065631;28;20147;-63